Cincinnati, OH

2:14 AM EST on February 13, 2016 (GMT -0500)
Mt Adams | | Change Station
CLOSE
Current Station
Personal Weather Station
Location: Cincinnati, OH
Elevation: 797 ft
Nearby Weather Stations
Active Advisory: Special Statement

Elev 797 ft 39.11 °N, 84.50 °W | Updated 2 seconds ago

Overcast
Overcast
16.3 °F
Feels Like 10 °F
N
3.7
Wind Variable Wind from West
Gusts 8.3 mph

Today
High -- | Low -- °F
--% Chance of Precip.
Yesterday
High -- | Low -- °F
Precip. -- in
Pressure 30.39 in
Visibility 10.0 miles
Clouds Few 4400 ft
Windchill 10 °F
Dew Point 10 °F
Humidity 74%
Rainfall 0.00 in
Snow Depth Not available.
7:32 AM 6:12 PM
Waxing Crescent, 28% visible
METAR KLUK 130653Z AUTO 31010KT 10SM FEW044 M08/M13 A3037 RMK AO2 SLP290 T10781133
Pressure 30.39 in
Visibility 10.0 miles
Clouds Few 4400 ft
Windchill 10 °F
Dew Point 10 °F
Humidity 74%
Rainfall 0.00 in
Snow Depth Not available.
7:32 AM 6:12 PM
Waxing Crescent, 28% visible
METAR KLUK 130653Z AUTO 31010KT 10SM FEW044 M08/M13 A3037 RMK AO2 SLP290 T10781133

10-Day Weather Forecast

Almanac

Astronomy

Feb. 13, 2016 Rise Set
Actual Time
Civil Twilight
Nautical Twilight
Astronomical Twilight
Moon
Length of Visible Light
Length of Day
Tomorrow will be .
, % of the Moon is Illuminated

Today's Extremes

State Highs State Lows

Community

WunderPhotos

Upload Photos

1,892,526 photos uploaded!

WunderBlog® & News

Nearby

Air Quality

  Air Quality AQ Index Pollutant
Not available.

Snow Depth

Station Depth Elevation

Earthquake Activity

City Distance Mag. Time & Date
Minimum magnitude displayed is 2.5.

Coastal Water Temperatures

Place Temperature

Stations

Nearby Weather Stations

Station Location Temp. Windchill Dew Point Humidity Wind Precip. Elev Updated Type
                   

Watches & Warnings

Special Statement
Issued: 9:56 PM EST Feb. 12, 2016 – National Weather Service

... Very cold wind chills expected early Saturday morning...

Temperatures are expected to continue to fall overnight... with low
temperatures ranging from 5 to 10 degrees above zero. Combined
with the wind... this will result in wind chill readings as cold as
zero to 10 below zero on Saturday morning.

Those planning to venture outdoors should use common sense and
dress warmly... making sure that all exposed skin is covered.


Hatzos